sensor_id;sensor_type;location;lat;lon;timestamp;pressure;altitude;pressure_sealevel;temperature;humidity
18275;BME280;19470;49.322;7.218;2023-03-23T00:02:25;97940.56;;;19.48;58.03
18275;BME280;19470;49.322;7.218;2023-03-23T00:04:54;97944.53;;;18.98;59.60
18275;BME280;19470;49.322;7.218;2023-03-23T00:07:21;97938.34;;;18.89;60.83
18275;BME280;19470;49.322;7.218;2023-03-23T00:09:48;97945.16;;;19.21;59.02
18275;BME280;19470;49.322;7.218;2023-03-23T00:12:20;97943.50;;;18.68;60.47
18275;BME280;19470;49.322;7.218;2023-03-23T00:14:46;97930.72;;;18.65;60.99
18275;BME280;19470;49.322;7.218;2023-03-23T00:17:13;97940.25;;;18.88;60.74
18275;BME280;19470;49.322;7.218;2023-03-23T00:19:40;97941.22;;;19.19;59.68
18275;BME280;19470;49.322;7.218;2023-03-23T00:22:13;97941.97;;;18.84;60.57
18275;BME280;19470;49.322;7.218;2023-03-23T00:24:41;97935.97;;;18.70;61.17
18275;BME280;19470;49.322;7.218;2023-03-23T00:27:07;97927.78;;;18.93;60.38
18275;BME280;19470;49.322;7.218;2023-03-23T00:29:38;97935.06;;;19.18;60.41
18275;BME280;19470;49.322;7.218;2023-03-23T00:32:04;97916.09;;;19.58;58.57
18275;BME280;19470;49.322;7.218;2023-03-23T00:34:34;97928.28;;;19.21;59.61
18275;BME280;19470;49.322;7.218;2023-03-23T00:37:01;97921.78;;;19.13;59.24
18275;BME280;19470;49.322;7.218;2023-03-23T00:39:28;97928.88;;;19.70;57.72
18275;BME280;19470;49.322;7.218;2023-03-23T00:41:55;97924.00;;;18.94;60.28
18275;BME280;19470;49.322;7.218;2023-03-23T00:44:26;97918.47;;;19.68;58.18
18275;BME280;19470;49.322;7.218;2023-03-23T00:46:53;97914.09;;;18.46;61.93
18275;BME280;19470;49.322;7.218;2023-03-23T00:49:22;97905.38;;;19.23;60.27
18275;BME280;19470;49.322;7.218;2023-03-23T00:51:50;97908.03;;;19.58;58.93
18275;BME280;19470;49.322;7.218;2023-03-23T00:54:17;97911.22;;;19.25;59.45
18275;BME280;19470;49.322;7.218;2023-03-23T00:56:45;97902.56;;;19.11;60.28
18275;BME280;19470;49.322;7.218;2023-03-23T00:59:12;97898.88;;;19.68;59.13
18275;BME280;19470;49.322;7.218;2023-03-23T01:01:38;97895.38;;;19.58;59.26
18275;BME280;19470;49.322;7.218;2023-03-23T01:04:05;97891.78;;;19.63;59.06
18275;BME280;19470;49.322;7.218;2023-03-23T01:06:34;97893.38;;;19.29;59.94
18275;BME280;19470;49.322;7.218;2023-03-23T01:09:05;97878.34;;;19.63;58.68
18275;BME280;19470;49.322;7.218;2023-03-23T01:11:31;97872.72;;;19.85;58.15
18275;BME280;19470;49.322;7.218;2023-03-23T01:14:00;97855.19;;;19.15;60.14
18275;BME280;19470;49.322;7.218;2023-03-23T01:16:26;97859.63;;;19.84;58.45
18275;BME280;19470;49.322;7.218;2023-03-23T01:18:53;97852.88;;;20.07;57.56
18275;BME280;19470;49.322;7.218;2023-03-23T01:21:20;97854.16;;;20.10;57.93
18275;BME280;19470;49.322;7.218;2023-03-23T01:23:48;97864.84;;;19.80;57.84
18275;BME280;19470;49.322;7.218;2023-03-23T01:26:17;97868.84;;;19.65;58.40
18275;BME280;19470;49.322;7.218;2023-03-23T01:28:43;97864.47;;;19.44;59.22
18275;BME280;19470;49.322;7.218;2023-03-23T01:31:14;97862.06;;;20.06;58.97
18275;BME280;19470;49.322;7.218;2023-03-23T01:33:42;97867.47;;;19.33;60.80
18275;BME280;19470;49.322;7.218;2023-03-23T01:36:11;97862.22;;;19.46;60.85
18275;BME280;19470;49.322;7.218;2023-03-23T01:38:38;97869.53;;;19.19;61.48
18275;BME280;19470;49.322;7.218;2023-03-23T01:41:05;97857.16;;;19.61;60.67
18275;BME280;19470;49.322;7.218;2023-03-23T01:43:31;97863.53;;;19.22;62.83
18275;BME280;19470;49.322;7.218;2023-03-23T01:45:58;97860.97;;;19.43;61.78
18275;BME280;19470;49.322;7.218;2023-03-23T01:48:28;97851.31;;;19.51;61.56
18275;BME280;19470;49.322;7.218;2023-03-23T01:50:57;97849.78;;;19.41;61.92
18275;BME280;19470;49.322;7.218;2023-03-23T01:53:29;97850.44;;;19.85;60.27
18275;BME280;19470;49.322;7.218;2023-03-23T01:55:57;97844.72;;;19.39;61.58
18275;BME280;19470;49.322;7.218;2023-03-23T01:58:27;97837.97;;;19.07;62.55
18275;BME280;19470;49.322;7.218;2023-03-23T02:00:57;97841.78;;;19.15;62.92
18275;BME280;19470;49.322;7.218;2023-03-23T02:03:27;97843.34;;;19.07;63.46
18275;BME280;19470;49.322;7.218;2023-03-23T02:05:56;97838.84;;;19.46;62.44
18275;BME280;19470;49.322;7.218;2023-03-23T02:08:24;97850.28;;;18.91;63.35
18275;BME280;19470;49.322;7.218;2023-03-23T02:10:53;97841.28;;;19.30;62.61
18275;BME280;19470;49.322;7.218;2023-03-23T02:13:19;97846.03;;;18.99;63.00
18275;BME280;19470;49.322;7.218;2023-03-23T02:15:55;97838.69;;;19.42;61.57
18275;BME280;19470;49.322;7.218;2023-03-23T02:18:34;97834.34;;;19.21;62.80
18275;BME280;19470;49.322;7.218;2023-03-23T02:21:25;97841.56;;;19.37;62.04
18275;BME280;19470;49.322;7.218;2023-03-23T02:24:10;97832.13;;;19.14;62.71
18275;BME280;19470;49.322;7.218;2023-03-23T02:26:50;97831.94;;;19.28;61.89
18275;BME280;19470;49.322;7.218;2023-03-23T02:29:30;97825.19;;;19.13;62.46
18275;BME280;19470;49.322;7.218;2023-03-23T02:32:27;97820.16;;;18.94;63.30
18275;BME280;19470;49.322;7.218;2023-03-23T02:35:08;97829.09;;;19.24;62.23
18275;BME280;19470;49.322;7.218;2023-03-23T02:37:40;97817.56;;;19.32;62.26
18275;BME280;19470;49.322;7.218;2023-03-23T02:40:13;97819.53;;;18.88;63.80
18275;BME280;19470;49.322;7.218;2023-03-23T02:42:45;97816.03;;;19.14;62.42
18275;BME280;19470;49.322;7.218;2023-03-23T02:45:14;97824.09;;;18.71;64.20
18275;BME280;19470;49.322;7.218;2023-03-23T02:48:04;97825.78;;;19.27;63.07
18275;BME280;19470;49.322;7.218;2023-03-23T02:50:36;97828.81;;;19.00;64.08
18275;BME280;19470;49.322;7.218;2023-03-23T02:53:05;97831.66;;;18.95;63.78
18275;BME280;19470;49.322;7.218;2023-03-23T02:55:34;97850.34;;;18.25;66.02
18275;BME280;19470;49.322;7.218;2023-03-23T02:58:06;97844.00;;;18.04;68.48
18275;BME280;19470;49.322;7.218;2023-03-23T03:00:32;97841.19;;;18.18;68.19
18275;BME280;19470;49.322;7.218;2023-03-23T03:02:59;97840.38;;;18.74;69.32
18275;BME280;19470;49.322;7.218;2023-03-23T03:05:35;97835.84;;;18.26;70.88
18275;BME280;19470;49.322;7.218;2023-03-23T03:08:13;97818.28;;;18.77;69.69
18275;BME280;19470;49.322;7.218;2023-03-23T03:10:48;97824.06;;;17.87;73.37
18275;BME280;19470;49.322;7.218;2023-03-23T03:13:25;97834.69;;;17.39;75.86
18275;BME280;19470;49.322;7.218;2023-03-23T03:15:57;97819.34;;;17.84;76.18
18275;BME280;19470;49.322;7.218;2023-03-23T03:18:29;97826.38;;;17.18;81.94
18275;BME280;19470;49.322;7.218;2023-03-23T03:21:03;97825.19;;;17.64;78.61
18275;BME280;19470;49.322;7.218;2023-03-23T03:23:32;97825.88;;;17.16;81.10
18275;BME280;19470;49.322;7.218;2023-03-23T03:26:00;97828.47;;;17.52;80.84
18275;BME280;19470;49.322;7.218;2023-03-23T03:28:31;97833.81;;;17.52;82.83
18275;BME280;19470;49.322;7.218;2023-03-23T03:31:01;97845.78;;;16.51;85.88
18275;BME280;19470;49.322;7.218;2023-03-23T03:33:30;97854.69;;;16.97;84.82
18275;BME280;19470;49.322;7.218;2023-03-23T03:36:00;97840.41;;;16.65;85.64
18275;BME280;19470;49.322;7.218;2023-03-23T03:38:28;97829.59;;;16.84;87.76
18275;BME280;19470;49.322;7.218;2023-03-23T03:40:56;97837.81;;;16.88;87.45
18275;BME280;19470;49.322;7.218;2023-03-23T03:43:23;97856.16;;;16.80;88.96
18275;BME280;19470;49.322;7.218;2023-03-23T03:45:49;97848.63;;;16.69;86.85
18275;BME280;19470;49.322;7.218;2023-03-23T03:48:16;97850.00;;;17.47;87.44
18275;BME280;19470;49.322;7.218;2023-03-23T03:50:42;97858.88;;;16.39;91.07
18275;BME280;19470;49.322;7.218;2023-03-23T03:53:10;97858.63;;;15.86;94.64
18275;BME280;19470;49.322;7.218;2023-03-23T03:55:38;97860.47;;;16.26;91.48
18275;BME280;19470;49.322;7.218;2023-03-23T03:58:10;97869.88;;;16.38;91.18
18275;BME280;19470;49.322;7.218;2023-03-23T04:00:37;97866.59;;;16.13;95.19
18275;BME280;19470;49.322;7.218;2023-03-23T04:03:04;97869.19;;;16.18;95.06
18275;BME280;19470;49.322;7.218;2023-03-23T04:05:31;97882.16;;;16.39;96.22
18275;BME280;19470;49.322;7.218;2023-03-23T04:07:58;97878.50;;;16.07;98.86
18275;BME280;19470;49.322;7.218;2023-03-23T04:10:29;97871.06;;;15.76;100.00
18275;BME280;19470;49.322;7.218;2023-03-23T04:12:56;97879.66;;;15.73;100.00
18275;BME280;19470;49.322;7.218;2023-03-23T04:15:23;97881.81;;;15.85;100.00
18275;BME280;19470;49.322;7.218;2023-03-23T04:17:50;97878.06;;;16.27;100.00
18275;BME280;19470;49.322;7.218;2023-03-23T04:20:17;97881.25;;;15.55;100.00
18275;BME280;19470;49.322;7.218;2023-03-23T04:22:44;97882.81;;;16.58;99.72
18275;BME280;19470;49.322;7.218;2023-03-23T04:25:15;97885.47;;;16.58;100.00
18275;BME280;19470;49.322;7.218;2023-03-23T04:27:47;97880.13;;;15.75;100.00
18275;BME280;19470;49.322;7.218;2023-03-23T04:30:18;97874.91;;;16.39;100.00
18275;BME280;19470;49.322;7.218;2023-03-23T04:32:46;97878.59;;;16.29;100.00
18275;BME280;19470;49.322;7.218;2023-03-23T04:35:16;97878.47;;;15.93;100.00
18275;BME280;19470;49.322;7.218;2023-03-23T04:37:44;97877.28;;;16.41;100.00
18275;BME280;19470;49.322;7.218;2023-03-23T04:40:13;97871.06;;;15.76;100.00
18275;BME280;19470;49.322;7.218;2023-03-23T04:42:41;97879.06;;;16.18;100.00
18275;BME280;19470;49.322;7.218;2023-03-23T04:45:13;97875.72;;;16.26;100.00
18275;BME280;19470;49.322;7.218;2023-03-23T04:47:41;97871.16;;;15.99;100.00
18275;BME280;19470;49.322;7.218;2023-03-23T04:50:14;97875.34;;;16.19;100.00
18275;BME280;19470;49.322;7.218;2023-03-23T04:52:42;97874.44;;;16.09;100.00
18275;BME280;19470;49.322;7.218;2023-03-23T04:55:11;97877.78;;;16.43;100.00
18275;BME280;19470;49.322;7.218;2023-03-23T04:57:38;97870.84;;;16.42;100.00
18275;BME280;19470;49.322;7.218;2023-03-23T05:00:06;97879.00;;;15.95;100.00
18275;BME280;19470;49.322;7.218;2023-03-23T05:02:35;97878.78;;;15.92;100.00
18275;BME280;19470;49.322;7.218;2023-03-23T05:05:02;97875.75;;;16.90;100.00
18275;BME280;19470;49.322;7.218;2023-03-23T05:07:29;97876.25;;;17.14;100.00
18275;BME280;19470;49.322;7.218;2023-03-23T05:09:55;97874.75;;;16.85;100.00
18275;BME280;19470;49.322;7.218;2023-03-23T05:12:22;97875.53;;;16.86;100.00
18275;BME280;19470;49.322;7.218;2023-03-23T05:14:48;97880.72;;;16.55;100.00
18275;BME280;19470;49.322;7.218;2023-03-23T05:17:15;97887.16;;;16.68;100.00
18275;BME280;19470;49.322;7.218;2023-03-23T05:19:43;97898.53;;;16.73;100.00
18275;BME280;19470;49.322;7.218;2023-03-23T05:22:12;97895.06;;;16.86;100.00
18275;BME280;19470;49.322;7.218;2023-03-23T05:24:39;97893.56;;;17.17;100.00
18275;BME280;19470;49.322;7.218;2023-03-23T05:27:08;97893.69;;;16.75;100.00
18275;BME280;19470;49.322;7.218;2023-03-23T05:29:35;97887.81;;;16.87;100.00
18275;BME280;19470;49.322;7.218;2023-03-23T05:32:02;97900.94;;;16.33;100.00
18275;BME280;19470;49.322;7.218;2023-03-23T05:34:30;97901.31;;;16.68;100.00
18275;BME280;19470;49.322;7.218;2023-03-23T05:36:59;97904.31;;;16.53;100.00
18275;BME280;19470;49.322;7.218;2023-03-23T05:42:41;97904.97;;;16.58;100.00
18275;BME280;19470;49.322;7.218;2023-03-23T05:45:09;97913.53;;;16.19;100.00
18275;BME280;19470;49.322;7.218;2023-03-23T05:47:36;97894.22;;;16.08;100.00
18275;BME280;19470;49.322;7.218;2023-03-23T05:56:45;97882.50;;;16.46;100.00
18275;BME280;19470;49.322;7.218;2023-03-23T06:02:33;97886.72;;;16.24;100.00
18275;BME280;19470;49.322;7.218;2023-03-23T06:04:59;97898.00;;;16.99;100.00
18275;BME280;19470;49.322;7.218;2023-03-23T06:07:26;97899.31;;;16.88;100.00
18275;BME280;19470;49.322;7.218;2023-03-23T06:09:52;97908.09;;;17.24;100.00
18275;BME280;19470;49.322;7.218;2023-03-23T06:12:20;97916.75;;;16.71;100.00
18275;BME280;19470;49.322;7.218;2023-03-23T06:14:47;97923.09;;;16.89;100.00
18275;BME280;19470;49.322;7.218;2023-03-23T06:17:14;97921.03;;;16.58;100.00
18275;BME280;19470;49.322;7.218;2023-03-23T06:19:41;97931.03;;;16.25;100.00
18275;BME280;19470;49.322;7.218;2023-03-23T06:22:07;97924.50;;;16.45;100.00
18275;BME280;19470;49.322;7.218;2023-03-23T06:24:34;97931.03;;;16.39;100.00
18275;BME280;19470;49.322;7.218;2023-03-23T06:27:00;97932.78;;;16.71;100.00
18275;BME280;19470;49.322;7.218;2023-03-23T06:29:28;97938.84;;;16.35;100.00
18275;BME280;19470;49.322;7.218;2023-03-23T06:31:58;97945.38;;;15.69;100.00
18275;BME280;19470;49.322;7.218;2023-03-23T06:34:26;97949.03;;;16.61;100.00
18275;BME280;19470;49.322;7.218;2023-03-23T06:36:52;97950.41;;;16.58;100.00
18275;BME280;19470;49.322;7.218;2023-03-23T06:39:19;97953.00;;;16.50;100.00
18275;BME280;19470;49.322;7.218;2023-03-23T06:41:47;97956.00;;;16.76;100.00
18275;BME280;19470;49.322;7.218;2023-03-23T06:44:13;97959.34;;;16.81;100.00
18275;BME280;19470;49.322;7.218;2023-03-23T06:46:42;97950.22;;;16.82;100.00
18275;BME280;19470;49.322;7.218;2023-03-23T06:49:09;97951.00;;;16.69;100.00
18275;BME280;19470;49.322;7.218;2023-03-23T06:51:36;97961.47;;;17.07;100.00
18275;BME280;19470;49.322;7.218;2023-03-23T06:54:02;97967.84;;;17.33;100.00
18275;BME280;19470;49.322;7.218;2023-03-23T06:56:29;97954.34;;;17.02;100.00
18275;BME280;19470;49.322;7.218;2023-03-23T06:58:55;97963.09;;;16.94;100.00
18275;BME280;19470;49.322;7.218;2023-03-23T07:01:22;97966.56;;;17.17;100.00
18275;BME280;19470;49.322;7.218;2023-03-23T07:03:50;97966.25;;;17.32;100.00
18275;BME280;19470;49.322;7.218;2023-03-23T07:06:17;97972.88;;;16.99;100.00
18275;BME280;19470;49.322;7.218;2023-03-23T07:08:44;97977.53;;;16.79;100.00
18275;BME280;19470;49.322;7.218;2023-03-23T07:11:10;97985.09;;;16.77;100.00
18275;BME280;19470;49.322;7.218;2023-03-23T07:13:37;97984.50;;;16.94;100.00
18275;BME280;19470;49.322;7.218;2023-03-23T07:16:05;97985.47;;;16.57;100.00
18275;BME280;19470;49.322;7.218;2023-03-23T07:18:32;97987.41;;;17.06;100.00
18275;BME280;19470;49.322;7.218;2023-03-23T07:21:00;97990.81;;;16.57;100.00
18275;BME280;19470;49.322;7.218;2023-03-23T07:23:28;97987.63;;;16.55;100.00
18275;BME280;19470;49.322;7.218;2023-03-23T07:25:55;97985.66;;;16.88;100.00
18275;BME280;19470;49.322;7.218;2023-03-23T07:28:22;97984.50;;;16.94;100.00
18275;BME280;19470;49.322;7.218;2023-03-23T07:30:48;97986.66;;;17.65;100.00
18275;BME280;19470;49.322;7.218;2023-03-23T07:33:15;97988.44;;;16.97;100.00
18275;BME280;19470;49.322;7.218;2023-03-23T07:35:41;97989.31;;;17.06;100.00
18275;BME280;19470;49.322;7.218;2023-03-23T07:38:09;97986.44;;;16.89;100.00
18275;BME280;19470;49.322;7.218;2023-03-23T07:40:36;97996.69;;;17.36;100.00
18275;BME280;19470;49.322;7.218;2023-03-23T07:43:03;97995.09;;;17.22;100.00
18275;BME280;19470;49.322;7.218;2023-03-23T07:45:30;97992.91;;;16.88;100.00
18275;BME280;19470;49.322;7.218;2023-03-23T07:47:57;98000.28;;;17.18;100.00
18275;BME280;19470;49.322;7.218;2023-03-23T07:50:24;98002.38;;;16.94;100.00
18275;BME280;19470;49.322;7.218;2023-03-23T07:52:53;98002.63;;;17.33;100.00
18275;BME280;19470;49.322;7.218;2023-03-23T07:55:21;98008.53;;;17.08;100.00
18275;BME280;19470;49.322;7.218;2023-03-23T07:57:50;98013.56;;;17.09;100.00
18275;BME280;19470;49.322;7.218;2023-03-23T08:00:18;98011.75;;;17.32;100.00
18275;BME280;19470;49.322;7.218;2023-03-23T08:02:46;98016.28;;;16.82;100.00
18275;BME280;19470;49.322;7.218;2023-03-23T08:05:14;98011.63;;;16.74;100.00
18275;BME280;19470;49.322;7.218;2023-03-23T08:07:41;98017.94;;;17.78;100.00
18275;BME280;19470;49.322;7.218;2023-03-23T08:10:09;98027.00;;;17.32;100.00
18275;BME280;19470;49.322;7.218;2023-03-23T08:12:38;98036.41;;;15.87;100.00
18275;BME280;19470;49.322;7.218;2023-03-23T08:15:07;98036.50;;;16.14;100.00
18275;BME280;19470;49.322;7.218;2023-03-23T08:17:34;98029.44;;;16.18;100.00
18275;BME280;19470;49.322;7.218;2023-03-23T08:20:02;98035.38;;;17.03;100.00
18275;BME280;19470;49.322;7.218;2023-03-23T08:22:36;98042.28;;;16.49;100.00
18275;BME280;19470;49.322;7.218;2023-03-23T08:25:04;98034.63;;;17.38;100.00
18275;BME280;19470;49.322;7.218;2023-03-23T08:27:31;98054.66;;;16.12;100.00
18275;BME280;19470;49.322;7.218;2023-03-23T08:29:59;98049.69;;;17.34;100.00
18275;BME280;19470;49.322;7.218;2023-03-23T08:32:26;98048.03;;;17.61;100.00
18275;BME280;19470;49.322;7.218;2023-03-23T08:34:53;98047.03;;;16.52;100.00
18275;BME280;19470;49.322;7.218;2023-03-23T08:37:20;98065.22;;;16.36;100.00
18275;BME280;19470;49.322;7.218;2023-03-23T08:39:49;98063.09;;;16.52;100.00
18275;BME280;19470;49.322;7.218;2023-03-23T08:42:16;98067.28;;;16.85;100.00
18275;BME280;19470;49.322;7.218;2023-03-23T08:44:43;98065.88;;;16.74;100.00
18275;BME280;19470;49.322;7.218;2023-03-23T08:47:11;98069.81;;;16.63;100.00
18275;BME280;19470;49.322;7.218;2023-03-23T08:49:38;98060.03;;;17.14;100.00
18275;BME280;19470;49.322;7.218;2023-03-23T08:52:05;98067.44;;;16.48;100.00
18275;BME280;19470;49.322;7.218;2023-03-23T08:54:32;98047.00;;;16.84;100.00
18275;BME280;19470;49.322;7.218;2023-03-23T08:57:00;98057.72;;;17.34;100.00
18275;BME280;19470;49.322;7.218;2023-03-23T08:59:27;98064.66;;;17.35;100.00
18275;BME280;19470;49.322;7.218;2023-03-23T09:01:54;98064.38;;;17.59;100.00
18275;BME280;19470;49.322;7.218;2023-03-23T09:04:22;98057.59;;;16.90;100.00
18275;BME280;19470;49.322;7.218;2023-03-23T09:06:48;98067.19;;;17.54;100.00
18275;BME280;19470;49.322;7.218;2023-03-23T09:09:15;98067.66;;;17.20;100.00
18275;BME280;19470;49.322;7.218;2023-03-23T09:11:41;98069.63;;;17.28;100.00
18275;BME280;19470;49.322;7.218;2023-03-23T09:14:08;98070.72;;;17.77;100.00
18275;BME280;19470;49.322;7.218;2023-03-23T09:16:34;98071.38;;;17.47;100.00
18275;BME280;19470;49.322;7.218;2023-03-23T09:19:01;98072.22;;;17.06;100.00
18275;BME280;19470;49.322;7.218;2023-03-23T09:21:29;98070.13;;;17.17;100.00
18275;BME280;19470;49.322;7.218;2023-03-23T09:23:56;98074.41;;;17.18;100.00
18275;BME280;19470;49.322;7.218;2023-03-23T09:26:23;98061.50;;;17.20;100.00
18275;BME280;19470;49.322;7.218;2023-03-23T09:28:50;98065.78;;;16.93;100.00
18275;BME280;19470;49.322;7.218;2023-03-23T09:31:17;98079.41;;;16.64;100.00
18275;BME280;19470;49.322;7.218;2023-03-23T09:33:45;98077.00;;;16.81;100.00
18275;BME280;19470;49.322;7.218;2023-03-23T09:36:12;98076.75;;;16.64;100.00
18275;BME280;19470;49.322;7.218;2023-03-23T09:38:43;98078.97;;;16.29;100.00
18275;BME280;19470;49.322;7.218;2023-03-23T09:41:19;98077.09;;;16.90;100.00
18275;BME280;19470;49.322;7.218;2023-03-23T09:43:56;98069.84;;;17.18;100.00
18275;BME280;19470;49.322;7.218;2023-03-23T09:46:34;98079.03;;;16.71;100.00
18275;BME280;19470;49.322;7.218;2023-03-23T09:49:05;98072.44;;;17.09;100.00
18275;BME280;19470;49.322;7.218;2023-03-23T09:51:41;98087.00;;;16.76;100.00
18275;BME280;19470;49.322;7.218;2023-03-23T09:54:14;98087.47;;;17.19;100.00
18275;BME280;19470;49.322;7.218;2023-03-23T09:56:41;98085.72;;;16.08;100.00
18275;BME280;19470;49.322;7.218;2023-03-23T09:59:14;98086.00;;;17.13;100.00
18275;BME280;19470;49.322;7.218;2023-03-23T10:01:46;98089.69;;;17.03;100.00
18275;BME280;19470;49.322;7.218;2023-03-23T10:04:33;98090.38;;;16.81;100.00
18275;BME280;19470;49.322;7.218;2023-03-23T10:07:13;98087.06;;;16.71;100.00
18275;BME280;19470;49.322;7.218;2023-03-23T10:09:44;98091.63;;;16.98;100.00
18275;BME280;19470;49.322;7.218;2023-03-23T10:12:19;98095.09;;;16.71;100.00
18275;BME280;19470;49.322;7.218;2023-03-23T10:14:57;98080.84;;;17.80;100.00
18275;BME280;19470;49.322;7.218;2023-03-23T10:17:28;98080.88;;;17.53;100.00
18275;BME280;19470;49.322;7.218;2023-03-23T10:20:04;98089.03;;;17.48;100.00
18275;BME280;19470;49.322;7.218;2023-03-23T10:22:36;98096.34;;;17.56;100.00
18275;BME280;19470;49.322;7.218;2023-03-23T10:25:15;98078.97;;;17.67;100.00
18275;BME280;19470;49.322;7.218;2023-03-23T10:27:47;98082.91;;;17.20;100.00
18275;BME280;19470;49.322;7.218;2023-03-23T10:30:19;98080.22;;;17.47;100.00
18275;BME280;19470;49.322;7.218;2023-03-23T10:32:52;98080.44;;;17.73;100.00
18275;BME280;19470;49.322;7.218;2023-03-23T10:35:24;98070.19;;;16.43;100.00
18275;BME280;19470;49.322;7.218;2023-03-23T10:37:55;98068.16;;;17.22;100.00
18275;BME280;19470;49.322;7.218;2023-03-23T10:40:28;98072.19;;;17.83;100.00
18275;BME280;19470;49.322;7.218;2023-03-23T10:42:56;98073.78;;;18.07;100.00
18275;BME280;19470;49.322;7.218;2023-03-23T10:45:26;98082.78;;;17.88;100.00
18275;BME280;19470;49.322;7.218;2023-03-23T10:47:57;98080.72;;;17.35;100.00
18275;BME280;19470;49.322;7.218;2023-03-23T10:50:27;98077.78;;;17.96;100.00
18275;BME280;19470;49.322;7.218;2023-03-23T10:52:57;98066.88;;;18.37;100.00
18275;BME280;19470;49.322;7.218;2023-03-23T10:55:36;98094.63;;;16.82;100.00
18275;BME280;19470;49.322;7.218;2023-03-23T10:58:05;98082.13;;;17.19;100.00
18275;BME280;19470;49.322;7.218;2023-03-23T11:00:33;98090.03;;;17.38;100.00
18275;BME280;19470;49.322;7.218;2023-03-23T11:06:26;98082.06;;;17.74;100.00
18275;BME280;19470;49.322;7.218;2023-03-23T11:08:55;98081.25;;;17.74;100.00
18275;BME280;19470;49.322;7.218;2023-03-23T11:11:27;98091.44;;;18.08;100.00
18275;BME280;19470;49.322;7.218;2023-03-23T11:13:59;98083.44;;;17.58;100.00
18275;BME280;19470;49.322;7.218;2023-03-23T11:16:28;98078.28;;;17.75;100.00
18275;BME280;19470;49.322;7.218;2023-03-23T11:18:57;98068.09;;;17.00;100.00
18275;BME280;19470;49.322;7.218;2023-03-23T11:21:25;98076.56;;;17.29;100.00
18275;BME280;19470;49.322;7.218;2023-03-23T11:23:54;98073.97;;;16.69;100.00
18275;BME280;19470;49.322;7.218;2023-03-23T11:26:26;98076.03;;;17.91;100.00
18275;BME280;19470;49.322;7.218;2023-03-23T11:28:57;98073.44;;;17.50;100.00
18275;BME280;19470;49.322;7.218;2023-03-23T11:31:27;98066.66;;;17.30;100.00
18275;BME280;19470;49.322;7.218;2023-03-23T11:33:57;98062.69;;;17.63;100.00
18275;BME280;19470;49.322;7.218;2023-03-23T11:36:30;98064.84;;;18.11;100.00
18275;BME280;19470;49.322;7.218;2023-03-23T11:38:57;98069.28;;;18.16;100.00
18275;BME280;19470;49.322;7.218;2023-03-23T11:41:31;98072.56;;;18.13;100.00
18275;BME280;19470;49.322;7.218;2023-03-23T11:44:09;98057.06;;;18.63;100.00
18275;BME280;19470;49.322;7.218;2023-03-23T11:46:42;98069.63;;;18.23;100.00
18275;BME280;19470;49.322;7.218;2023-03-23T11:49:22;98086.38;;;16.32;100.00
18275;BME280;19470;49.322;7.218;2023-03-23T11:52:03;98081.75;;;16.84;100.00
18275;BME280;19470;49.322;7.218;2023-03-23T11:54:37;98080.34;;;17.28;100.00
18275;BME280;19470;49.322;7.218;2023-03-23T11:57:09;98072.41;;;17.23;100.00
18275;BME280;19470;49.322;7.218;2023-03-23T11:59:37;98065.50;;;17.08;100.00
18275;BME280;19470;49.322;7.218;2023-03-23T12:02:23;98062.88;;;17.67;100.00
18275;BME280;19470;49.322;7.218;2023-03-23T12:04:57;98065.50;;;17.22;100.00
18275;BME280;19470;49.322;7.218;2023-03-23T12:07:39;98062.25;;;17.48;100.00
18275;BME280;19470;49.322;7.218;2023-03-23T12:10:17;98067.19;;;17.91;100.00
18275;BME280;19470;49.322;7.218;2023-03-23T12:12:59;98047.16;;;17.16;100.00
18275;BME280;19470;49.322;7.218;2023-03-23T12:15:32;98018.31;;;18.38;100.00
18275;BME280;19470;49.322;7.218;2023-03-23T12:18:06;98025.69;;;19.21;97.10
18275;BME280;19470;49.322;7.218;2023-03-23T12:20:55;98017.75;;;20.20;89.43
18275;BME280;19470;49.322;7.218;2023-03-23T12:23:24;98032.91;;;18.95;93.54
18275;BME280;19470;49.322;7.218;2023-03-23T12:26:09;98020.22;;;19.70;92.44
18275;BME280;19470;49.322;7.218;2023-03-23T12:28:56;98034.69;;;19.42;91.98
18275;BME280;19470;49.322;7.218;2023-03-23T12:31:31;98026.84;;;19.72;90.42
18275;BME280;19470;49.322;7.218;2023-03-23T12:34:06;98027.94;;;19.97;89.29
18275;BME280;19470;49.322;7.218;2023-03-23T12:36:48;98032.06;;;19.86;90.21
18275;BME280;19470;49.322;7.218;2023-03-23T12:39:50;98030.50;;;18.84;93.72
18275;BME280;19470;49.322;7.218;2023-03-23T12:42:24;98028.38;;;19.12;92.04
18275;BME280;19470;49.322;7.218;2023-03-23T12:44:59;98017.66;;;19.30;91.43
18275;BME280;19470;49.322;7.218;2023-03-23T12:47:34;98005.91;;;18.51;96.26
18275;BME280;19470;49.322;7.218;2023-03-23T12:50:06;98007.28;;;18.09;98.61
18275;BME280;19470;49.322;7.218;2023-03-23T12:52:39;98035.06;;;18.13;95.87
18275;BME280;19470;49.322;7.218;2023-03-23T12:55:21;98007.63;;;17.71;100.00
18275;BME280;19470;49.322;7.218;2023-03-23T12:57:53;98027.72;;;18.67;95.51
18275;BME280;19470;49.322;7.218;2023-03-23T13:00:28;98020.59;;;18.94;95.02
18275;BME280;19470;49.322;7.218;2023-03-23T13:02:59;98020.06;;;18.12;98.02
18275;BME280;19470;49.322;7.218;2023-03-23T13:05:34;98015.47;;;18.75;95.34
18275;BME280;19470;49.322;7.218;2023-03-23T13:08:05;98020.47;;;19.07;93.02
18275;BME280;19470;49.322;7.218;2023-03-23T13:10:39;98022.44;;;17.91;100.00
18275;BME280;19470;49.322;7.218;2023-03-23T13:13:11;98026.88;;;18.49;97.02
18275;BME280;19470;49.322;7.218;2023-03-23T13:15:48;98022.66;;;18.26;99.22
18275;BME280;19470;49.322;7.218;2023-03-23T13:18:23;98011.84;;;18.08;100.00
18275;BME280;19470;49.322;7.218;2023-03-23T13:20:55;98014.66;;;18.34;96.74
18275;BME280;19470;49.322;7.218;2023-03-23T13:23:25;98012.69;;;18.57;96.88
18275;BME280;19470;49.322;7.218;2023-03-23T13:25:58;98005.03;;;18.33;98.52
18275;BME280;19470;49.322;7.218;2023-03-23T13:28:27;98002.00;;;18.66;95.28